createdAt,value
2023-04-24T00:00:11.768Z,2.20
2023-04-24T00:00:23.932Z,2.10
2023-04-24T00:00:34.623Z,2.00
2023-04-24T00:00:45.435Z,2.30
2023-04-24T00:00:57.160Z,2.20
2023-04-24T00:01:09.605Z,2.20
2023-04-24T00:01:21.309Z,2.10
2023-04-24T00:01:34.294Z,2.30
2023-04-24T00:01:47.652Z,2.20
2023-04-24T00:02:00.174Z,2.10
2023-04-24T00:02:11.063Z,2.00
2023-04-24T00:02:21.989Z,2.10
2023-04-24T00:02:33.006Z,2.00
2023-04-24T00:02:44.908Z,2.00
2023-04-24T00:02:58.240Z,2.20
2023-04-24T00:03:09.479Z,2.30
2023-04-24T00:03:22.225Z,2.30
2023-04-24T00:03:34.257Z,2.20
2023-04-24T00:03:46.648Z,2.20
2023-04-24T00:03:57.543Z,2.30
2023-04-24T00:04:08.461Z,2.20
2023-04-24T00:04:19.513Z,2.10
2023-04-24T00:04:30.498Z,2.00
2023-04-24T00:04:41.561Z,2.00
2023-04-24T00:04:53.326Z,2.10
2023-04-24T00:05:05.994Z,2.10
2023-04-24T00:05:17.741Z,2.20
2023-04-24T00:05:29.440Z,2.20
2023-04-24T00:05:41.668Z,2.30
2023-04-24T00:05:53.402Z,2.40
2023-04-24T00:06:05.883Z,2.30
2023-04-24T00:06:18.295Z,2.20
2023-04-24T00:06:31.004Z,2.50
2023-04-24T00:06:42.704Z,2.20
2023-04-24T00:06:54.426Z,2.20
2023-04-24T00:07:05.930Z,2.20
2023-04-24T00:07:18.391Z,2.40
2023-04-24T00:07:29.065Z,2.40
2023-04-24T00:07:41.559Z,2.30
2023-04-24T00:07:52.265Z,2.20
2023-04-24T00:08:03.078Z,2.30
2023-04-24T00:08:13.826Z,2.30
2023-04-24T00:08:25.522Z,2.30
2023-04-24T00:08:38.220Z,2.20
2023-04-24T00:08:49.943Z,2.10
2023-04-24T00:09:00.625Z,2.30
2023-04-24T00:09:11.341Z,2.20
2023-04-24T00:09:22.100Z,2.70
2023-04-24T00:09:32.811Z,2.60
2023-04-24T00:09:43.814Z,2.70
2023-04-24T00:09:54.749Z,2.20
2023-04-24T00:10:05.427Z,2.30
2023-04-24T00:10:16.164Z,2.30
2023-04-24T00:10:28.385Z,2.30
2023-04-24T00:10:40.582Z,2.40
2023-04-24T00:10:52.260Z,2.20
2023-04-24T00:11:02.976Z,2.10
2023-04-24T00:11:13.701Z,2.20
2023-04-24T00:11:24.440Z,2.20
2023-04-24T00:11:37.624Z,2.20
2023-04-24T00:11:49.316Z,2.10
2023-04-24T00:12:01.472Z,2.20
2023-04-24T00:12:13.895Z,2.30
2023-04-24T00:12:26.077Z,2.40
2023-04-24T00:12:36.795Z,2.30
2023-04-24T00:12:48.512Z,2.40
2023-04-24T00:12:59.234Z,2.10
2023-04-24T00:13:09.964Z,2.10
2023-04-24T00:13:22.870Z,2.10
2023-04-24T00:13:34.608Z,2.10
2023-04-24T00:13:45.302Z,2.20
2023-04-24T00:13:56.035Z,2.10
2023-04-24T00:14:08.436Z,2.00
2023-04-24T00:14:19.143Z,2.20
2023-04-24T00:14:29.914Z,2.20
2023-04-24T00:14:41.598Z,2.20
2023-04-24T00:14:52.331Z,2.00
2023-04-24T00:15:03.129Z,1.90
2023-04-24T00:15:13.813Z,2.20
2023-04-24T00:15:24.531Z,2.30
2023-04-24T00:15:38.184Z,2.20
2023-04-24T00:15:48.920Z,2.20
2023-04-24T00:16:00.631Z,2.10
2023-04-24T00:16:11.325Z,2.30
2023-04-24T00:16:22.000Z,2.30
2023-04-24T00:16:32.733Z,2.10
2023-04-24T00:16:43.453Z,2.00
2023-04-24T00:16:55.950Z,2.10
2023-04-24T00:17:06.723Z,1.90
2023-04-24T00:17:18.451Z,1.90
2023-04-24T00:17:29.229Z,1.90
2023-04-24T00:17:39.934Z,2.00
2023-04-24T00:17:50.656Z,2.00
2023-04-24T00:18:01.371Z,2.00
2023-04-24T00:18:12.062Z,2.20
2023-04-24T00:18:22.790Z,2.20
2023-04-24T00:18:34.480Z,2.10
2023-04-24T00:18:45.277Z,2.20
2023-04-24T00:18:57.665Z,2.30
2023-04-24T00:19:08.370Z,2.10
2023-04-24T00:19:19.079Z,2.10
2023-04-24T00:19:29.780Z,2.10
2023-04-24T00:19:40.709Z,2.20
2023-04-24T00:19:51.496Z,2.20
2023-04-24T00:20:03.204Z,2.10
2023-04-24T00:20:13.953Z,2.20
2023-04-24T00:20:24.651Z,2.20
2023-04-24T00:20:35.423Z,2.20
2023-04-24T00:20:46.110Z,2.00
2023-04-24T00:20:57.763Z,2.30
2023-04-24T00:21:08.467Z,2.40
2023-04-24T00:21:19.160Z,2.40
2023-04-24T00:21:29.883Z,2.20
2023-04-24T00:21:40.558Z,2.10
2023-04-24T00:21:51.251Z,2.10
2023-04-24T00:22:01.951Z,2.00
2023-04-24T00:22:12.694Z,2.00
2023-04-24T00:22:23.441Z,2.10
2023-04-24T00:22:34.190Z,2.20
2023-04-24T00:22:47.857Z,2.20
2023-04-24T00:22:58.556Z,2.30
2023-04-24T00:23:09.257Z,2.20
2023-04-24T00:23:19.952Z,2.30
2023-04-24T00:23:30.718Z,2.30
2023-04-24T00:23:41.408Z,2.40
2023-04-24T00:23:52.094Z,2.40
2023-04-24T00:24:05.266Z,2.40
2023-04-24T00:24:17.654Z,2.60
2023-04-24T00:24:28.379Z,2.70
2023-04-24T00:24:39.084Z,2.60
2023-04-24T00:24:49.783Z,2.20
2023-04-24T00:25:02.200Z,2.20
2023-04-24T00:25:12.932Z,2.20
2023-04-24T00:25:25.394Z,2.20
2023-04-24T00:25:36.096Z,2.20
2023-04-24T00:25:47.756Z,2.40
2023-04-24T00:26:00.180Z,2.20
2023-04-24T00:26:10.896Z,2.30
2023-04-24T00:26:23.572Z,2.20
2023-04-24T00:26:34.276Z,2.10
2023-04-24T00:26:45.015Z,2.30
2023-04-24T00:26:57.226Z,2.20
2023-04-24T00:27:07.948Z,2.20
2023-04-24T00:27:18.639Z,2.10
2023-04-24T00:27:30.098Z,2.20
2023-04-24T00:27:40.836Z,2.10
2023-04-24T00:27:51.552Z,2.00
2023-04-24T00:28:02.295Z,2.20
2023-04-24T00:28:14.685Z,2.50
2023-04-24T00:28:25.398Z,2.50
2023-04-24T00:28:37.838Z,2.30
2023-04-24T00:28:48.512Z,2.30
2023-04-24T00:29:00.776Z,2.20
2023-04-24T00:29:11.548Z,2.20
2023-04-24T00:29:23.924Z,2.10
2023-04-24T00:29:36.822Z,2.40
2023-04-24T00:29:47.547Z,2.30
2023-04-24T00:29:59.697Z,2.10
2023-04-24T00:30:11.404Z,2.20
2023-04-24T00:30:22.096Z,2.30
2023-04-24T00:30:32.791Z,2.40
2023-04-24T00:30:43.513Z,2.30
2023-04-24T00:30:55.151Z,2.20
2023-04-24T00:31:05.870Z,2.20
2023-04-24T00:31:17.578Z,2.20
2023-04-24T00:31:29.253Z,2.20
2023-04-24T00:31:41.024Z,2.10
2023-04-24T00:31:52.746Z,2.20
2023-04-24T00:32:05.430Z,2.10
2023-04-24T00:32:18.857Z,2.10
2023-04-24T00:32:29.744Z,2.20
2023-04-24T00:32:40.478Z,2.10
2023-04-24T00:32:51.260Z,2.10
2023-04-24T00:33:04.294Z,2.00
2023-04-24T00:33:15.054Z,2.10
2023-04-24T00:33:25.800Z,2.20
2023-04-24T00:33:36.618Z,2.20
2023-04-24T00:33:47.310Z,2.30
2023-04-24T00:33:59.470Z,2.40
2023-04-24T00:34:10.158Z,2.30
2023-04-24T00:34:22.549Z,2.10
2023-04-24T00:34:34.487Z,1.90
2023-04-24T00:34:45.177Z,2.00
2023-04-24T00:34:55.883Z,2.10
2023-04-24T00:35:06.619Z,2.20
2023-04-24T00:35:17.316Z,2.30
2023-04-24T00:35:30.992Z,2.50
2023-04-24T00:35:42.649Z,2.80
2023-04-24T00:35:55.085Z,2.50
2023-04-24T00:36:05.757Z,2.30
2023-04-24T00:36:16.507Z,1.80
2023-04-24T00:36:27.240Z,1.80
2023-04-24T00:36:37.927Z,2.10
2023-04-24T00:36:50.868Z,2.20
2023-04-24T00:37:01.556Z,2.20
2023-04-24T00:37:12.280Z,2.00
2023-04-24T00:37:23.960Z,2.10
2023-04-24T00:37:36.391Z,2.00
2023-04-24T00:37:47.072Z,2.00
2023-04-24T00:37:57.796Z,2.00
2023-04-24T00:38:09.476Z,2.10
2023-04-24T00:38:21.199Z,2.10
2023-04-24T00:38:34.348Z,2.10
2023-04-24T00:38:45.057Z,1.90
2023-04-24T00:38:56.719Z,2.10
2023-04-24T00:39:07.462Z,2.20
2023-04-24T00:39:19.309Z,2.30
2023-04-24T00:39:31.698Z,2.10
2023-04-24T00:39:44.565Z,2.00
2023-04-24T00:39:55.485Z,1.90
2023-04-24T00:40:06.225Z,1.90
2023-04-24T00:40:16.955Z,2.00
2023-04-24T00:40:30.146Z,2.00
2023-04-24T00:40:40.850Z,1.90
2023-04-24T00:40:52.570Z,1.80
2023-04-24T00:41:03.254Z,2.00
2023-04-24T00:41:13.999Z,2.10
2023-04-24T00:41:24.696Z,2.00
2023-04-24T00:41:36.377Z,1.90
2023-04-24T00:41:48.079Z,2.00
2023-04-24T00:41:58.790Z,2.30
2023-04-24T00:42:09.559Z,2.20
2023-04-24T00:42:21.946Z,2.20
2023-04-24T00:42:32.647Z,2.20
2023-04-24T00:42:43.364Z,2.20
2023-04-24T00:42:54.074Z,2.20
2023-04-24T00:43:04.863Z,1.90
2023-04-24T00:43:16.991Z,1.90
2023-04-24T00:43:29.157Z,2.00
2023-04-24T00:43:39.909Z,2.10
2023-04-24T00:43:50.629Z,2.00
2023-04-24T00:44:02.750Z,2.20
2023-04-24T00:44:14.410Z,2.30
2023-04-24T00:44:25.123Z,2.10
2023-04-24T00:44:35.877Z,2.10
2023-04-24T00:44:48.286Z,2.20
2023-04-24T00:44:59.960Z,2.20
2023-04-24T00:45:12.156Z,2.30
2023-04-24T00:45:22.846Z,2.20
2023-04-24T00:45:33.583Z,2.20
2023-04-24T00:45:44.322Z,2.10
2023-04-24T00:45:55.116Z,2.30
2023-04-24T00:46:05.812Z,2.40
2023-04-24T00:46:16.646Z,2.40
2023-04-24T00:46:27.368Z,2.30
2023-04-24T00:46:38.203Z,2.30
2023-04-24T00:46:50.610Z,2.50
2023-04-24T00:47:03.086Z,2.40
2023-04-24T00:47:14.751Z,2.40
2023-04-24T00:47:25.492Z,2.40
2023-04-24T00:47:37.349Z,2.30
2023-04-24T00:47:48.073Z,2.20
2023-04-24T00:47:58.793Z,2.30
2023-04-24T00:48:09.567Z,2.20
2023-04-24T00:48:21.294Z,2.40
2023-04-24T00:48:31.984Z,2.30
2023-04-24T00:48:43.700Z,2.30
2023-04-24T00:48:55.381Z,2.10
2023-04-24T00:49:07.838Z,2.20
2023-04-24T00:49:19.483Z,2.00
2023-04-24T00:49:30.190Z,2.10
2023-04-24T00:49:42.533Z,2.10
2023-04-24T00:49:55.060Z,2.20
2023-04-24T00:50:06.743Z,2.30
2023-04-24T00:50:19.164Z,2.20
2023-04-24T00:50:30.890Z,2.20
2023-04-24T00:50:42.550Z,2.10
2023-04-24T00:50:54.226Z,2.20
2023-04-24T00:51:05.948Z,2.40
2023-04-24T00:51:16.681Z,2.40
2023-04-24T00:51:28.391Z,2.30
2023-04-24T00:51:40.754Z,2.20
2023-04-24T00:51:52.414Z,2.30
2023-04-24T00:52:03.150Z,2.10
2023-04-24T00:52:13.820Z,2.40
2023-04-24T00:52:25.529Z,2.30
2023-04-24T00:52:36.533Z,2.70
2023-04-24T00:52:48.773Z,2.40
2023-04-24T00:52:59.492Z,2.40
2023-04-24T00:53:10.276Z,2.10
2023-04-24T00:53:20.979Z,2.10
2023-04-24T00:53:31.666Z,2.20
2023-04-24T00:53:42.395Z,2.30
2023-04-24T00:53:54.382Z,2.30
2023-04-24T00:54:06.770Z,2.20
2023-04-24T00:54:19.193Z,2.30
2023-04-24T00:54:31.429Z,2.60
2023-04-24T00:54:43.634Z,2.40
2023-04-24T00:54:54.319Z,2.40
2023-04-24T00:55:07.564Z,2.10
2023-04-24T00:55:18.322Z,2.20
2023-04-24T00:55:29.986Z,2.00
2023-04-24T00:55:41.657Z,2.10
2023-04-24T00:55:52.351Z,2.20
2023-04-24T00:56:04.047Z,2.30
2023-04-24T00:56:15.743Z,2.30
2023-04-24T00:56:27.401Z,2.10
2023-04-24T00:56:39.088Z,2.00
2023-04-24T00:56:52.759Z,2.10
2023-04-24T00:57:05.142Z,2.20
2023-04-24T00:57:17.605Z,2.20
2023-04-24T00:57:29.256Z,2.20
2023-04-24T00:57:40.942Z,2.30
2023-04-24T00:57:51.658Z,2.30
2023-04-24T00:58:03.372Z,2.20
2023-04-24T00:58:15.064Z,2.40
2023-04-24T00:58:25.792Z,2.60
2023-04-24T00:58:37.589Z,2.40
2023-04-24T00:58:48.287Z,2.10
2023-04-24T00:59:00.698Z,2.20
2023-04-24T00:59:11.388Z,2.30
2023-04-24T00:59:22.109Z,2.30
2023-04-24T00:59:33.843Z,2.50
2023-04-24T00:59:44.739Z,2.40
2023-04-24T00:59:56.493Z,2.40
2023-04-24T01:00:10.186Z,2.10
2023-04-24T01:00:20.899Z,2.10
2023-04-24T01:00:33.047Z,2.20
2023-04-24T01:00:43.757Z,2.40
2023-04-24T01:00:54.477Z,2.50
2023-04-24T01:01:05.217Z,2.30
2023-04-24T01:01:16.906Z,2.30
2023-04-24T01:01:27.727Z,2.10
2023-04-24T01:01:38.502Z,2.10
2023-04-24T01:01:49.277Z,2.30
2023-04-24T01:02:00.026Z,2.20
2023-04-24T01:02:11.701Z,2.10
2023-04-24T01:02:22.471Z,2.10
2023-04-24T01:02:35.041Z,2.20
2023-04-24T01:02:45.836Z,2.50
2023-04-24T01:02:56.724Z,2.30
2023-04-24T01:03:08.764Z,2.20
2023-04-24T01:03:19.688Z,2.10
2023-04-24T01:03:32.326Z,2.30
2023-04-24T01:03:43.274Z,2.40
2023-04-24T01:03:54.209Z,2.50
2023-04-24T01:04:06.266Z,2.50
2023-04-24T01:04:19.080Z,2.20
2023-04-24T01:04:30.960Z,2.20
2023-04-24T01:04:41.771Z,2.20
2023-04-24T01:04:54.211Z,2.40
2023-04-24T01:05:05.892Z,2.30
2023-04-24T01:05:19.090Z,2.20
2023-04-24T01:05:30.782Z,2.00
2023-04-24T01:05:42.473Z,2.00
2023-04-24T01:05:53.183Z,2.10
2023-04-24T01:06:05.853Z,2.00
2023-04-24T01:06:16.590Z,2.10
2023-04-24T01:06:27.326Z,2.20
2023-04-24T01:06:38.006Z,2.30
2023-04-24T01:06:51.040Z,2.10
2023-04-24T01:07:04.506Z,2.10
2023-04-24T01:07:15.270Z,2.10
2023-04-24T01:07:27.419Z,2.00
2023-04-24T01:07:38.156Z,2.10
2023-04-24T01:07:48.891Z,2.30
2023-04-24T01:08:00.628Z,2.50
2023-04-24T01:08:12.314Z,2.30
2023-04-24T01:08:23.017Z,2.00
2023-04-24T01:08:33.730Z,2.10
2023-04-24T01:08:45.454Z,2.30
2023-04-24T01:08:57.159Z,2.30
2023-04-24T01:09:07.840Z,2.20
2023-04-24T01:09:19.515Z,2.30
2023-04-24T01:09:30.270Z,2.40
2023-04-24T01:09:42.949Z,2.10
2023-04-24T01:09:53.850Z,2.00
2023-04-24T01:10:05.549Z,2.00
2023-04-24T01:10:16.290Z,2.20
2023-04-24T01:10:28.952Z,2.40
2023-04-24T01:10:39.659Z,2.30
2023-04-24T01:10:50.359Z,2.40
2023-04-24T01:11:01.062Z,2.30
2023-04-24T01:11:14.229Z,2.10
2023-04-24T01:11:24.929Z,2.00
2023-04-24T01:11:36.634Z,2.00
2023-04-24T01:11:47.336Z,2.30
2023-04-24T01:11:58.062Z,2.40
2023-04-24T01:12:08.792Z,2.40
2023-04-24T01:12:20.505Z,2.50
2023-04-24T01:12:32.156Z,2.60
2023-04-24T01:12:42.910Z,2.40
2023-04-24T01:12:55.290Z,2.30
2023-04-24T01:13:05.988Z,2.30
2023-04-24T01:13:19.681Z,2.10
2023-04-24T01:13:31.906Z,2.00
2023-04-24T01:13:42.801Z,1.70
2023-04-24T01:13:54.542Z,1.90
2023-04-24T01:14:05.228Z,2.20
2023-04-24T01:14:16.893Z,2.30
2023-04-24T01:14:27.615Z,2.40
2023-04-24T01:14:40.018Z,2.30
2023-04-24T01:14:50.750Z,2.20
2023-04-24T01:15:02.440Z,2.30
2023-04-24T01:15:13.156Z,2.20
2023-04-24T01:15:23.852Z,2.30
2023-04-24T01:15:34.616Z,2.30
2023-04-24T01:15:47.112Z,2.20
2023-04-24T01:15:57.827Z,2.50
2023-04-24T01:16:08.554Z,2.40
2023-04-24T01:16:21.035Z,2.50
2023-04-24T01:16:32.758Z,2.10
2023-04-24T01:16:44.415Z,2.00
2023-04-24T01:16:55.100Z,2.00
2023-04-24T01:17:06.774Z,2.20
2023-04-24T01:17:17.504Z,2.20
2023-04-24T01:17:29.174Z,2.40
2023-04-24T01:17:40.909Z,2.30
2023-04-24T01:17:51.628Z,2.30
2023-04-24T01:18:03.361Z,2.10
2023-04-24T01:18:15.023Z,2.20
2023-04-24T01:18:25.711Z,2.20
2023-04-24T01:18:36.413Z,2.20
2023-04-24T01:18:47.188Z,2.30
2023-04-24T01:18:58.821Z,2.20
2023-04-24T01:19:10.488Z,2.30
2023-04-24T01:19:21.231Z,2.40
2023-04-24T01:19:32.932Z,2.40
2023-04-24T01:19:43.834Z,2.40
2023-04-24T01:19:54.776Z,2.30
2023-04-24T01:20:05.454Z,2.30
2023-04-24T01:20:18.636Z,2.10
2023-04-24T01:20:30.299Z,2.00
2023-04-24T01:20:41.016Z,2.10
2023-04-24T01:20:51.705Z,2.30
2023-04-24T01:21:02.395Z,2.10
2023-04-24T01:21:13.140Z,2.20
2023-04-24T01:21:23.836Z,2.20
2023-04-24T01:21:34.541Z,2.50
2023-04-24T01:21:46.966Z,2.40
2023-04-24T01:21:57.669Z,2.30
2023-04-24T01:22:08.402Z,2.20
2023-04-24T01:22:19.065Z,2.20
2023-04-24T01:22:29.836Z,2.10
2023-04-24T01:22:40.540Z,2.10
2023-04-24T01:22:51.248Z,2.00
2023-04-24T01:23:01.938Z,2.10
2023-04-24T01:23:12.681Z,2.30
2023-04-24T01:23:23.344Z,2.20
2023-04-24T01:23:34.998Z,2.10
2023-04-24T01:23:47.699Z,2.00
2023-04-24T01:23:59.370Z,2.10
2023-04-24T01:24:10.137Z,2.10
2023-04-24T01:24:22.821Z,2.10
2023-04-24T01:24:34.493Z,2.10
2023-04-24T01:24:46.940Z,1.90
2023-04-24T01:24:58.633Z,2.00
2023-04-24T01:25:10.104Z,2.00
2023-04-24T01:25:20.797Z,2.00
2023-04-24T01:25:32.706Z,2.10
2023-04-24T01:25:43.457Z,1.90
2023-04-24T01:25:54.133Z,2.20
2023-04-24T01:26:04.825Z,2.10
2023-04-24T01:26:17.722Z,2.10
2023-04-24T01:26:28.436Z,2.20
2023-04-24T01:26:40.089Z,2.20
2023-04-24T01:26:52.512Z,2.10
2023-04-24T01:27:04.169Z,2.00
2023-04-24T01:27:14.876Z,2.10
2023-04-24T01:27:25.611Z,2.20
2023-04-24T01:27:37.255Z,2.10
2023-04-24T01:27:47.981Z,2.20
2023-04-24T01:27:58.667Z,2.10
2023-04-24T01:28:09.371Z,2.10
2023-04-24T01:28:20.118Z,2.20
2023-04-24T01:28:30.847Z,2.10
2023-04-24T01:28:43.533Z,2.00
2023-04-24T01:28:55.909Z,2.20
2023-04-24T01:29:06.601Z,2.10
2023-04-24T01:29:17.314Z,2.20
2023-04-24T01:29:29.104Z,2.10
2023-04-24T01:29:42.475Z,2.20
2023-04-24T01:29:55.060Z,2.00
2023-04-24T01:30:05.771Z,2.00
2023-04-24T01:30:16.483Z,1.90
2023-04-24T01:30:29.640Z,1.80
2023-04-24T01:30:42.068Z,2.00
2023-04-24T01:30:52.810Z,2.20
2023-04-24T01:31:04.509Z,2.10
2023-04-24T01:31:15.210Z,2.00
2023-04-24T01:31:25.910Z,2.10
2023-04-24T01:31:36.621Z,2.20
2023-04-24T01:31:49.841Z,2.30
2023-04-24T01:32:02.052Z,2.20
2023-04-24T01:32:12.795Z,2.00
2023-04-24T01:32:25.220Z,1.90
2023-04-24T01:32:35.953Z,1.90
2023-04-24T01:32:47.622Z,2.00
2023-04-24T01:32:58.364Z,2.00
2023-04-24T01:33:09.051Z,2.00
2023-04-24T01:33:19.746Z,2.00
2023-04-24T01:33:31.478Z,2.20
2023-04-24T01:33:42.178Z,2.20
2023-04-24T01:33:54.582Z,2.20
2023-04-24T01:34:08.305Z,1.90
2023-04-24T01:34:21.467Z,2.00
2023-04-24T01:34:32.154Z,2.40
2023-04-24T01:34:44.597Z,2.30
2023-04-24T01:34:57.079Z,2.30
2023-04-24T01:35:09.530Z,2.00
2023-04-24T01:35:21.912Z,2.20
2023-04-24T01:35:32.619Z,2.10
2023-04-24T01:35:44.279Z,2.10
2023-04-24T01:35:55.028Z,2.00
2023-04-24T01:36:05.703Z,2.20
2023-04-24T01:36:18.104Z,2.20
2023-04-24T01:36:28.812Z,2.00
2023-04-24T01:36:40.576Z,1.90
2023-04-24T01:36:52.720Z,2.10
2023-04-24T01:37:04.895Z,2.10
2023-04-24T01:37:15.596Z,1.90
2023-04-24T01:37:28.780Z,1.80
2023-04-24T01:37:40.438Z,1.90
2023-04-24T01:37:52.615Z,2.00
2023-04-24T01:38:04.289Z,2.00
2023-04-24T01:38:16.693Z,2.10
2023-04-24T01:38:27.384Z,2.00
2023-04-24T01:38:38.102Z,2.00
2023-04-24T01:38:48.838Z,2.00
2023-04-24T01:39:00.510Z,2.00
2023-04-24T01:39:12.204Z,2.20
2023-04-24T01:39:22.898Z,2.50
2023-04-24T01:39:35.576Z,2.50
2023-04-24T01:39:46.286Z,2.20
2023-04-24T01:39:57.008Z,2.00
2023-04-24T01:40:07.688Z,2.00
2023-04-24T01:40:18.433Z,2.10
2023-04-24T01:40:29.174Z,2.10
2023-04-24T01:40:40.870Z,2.10
2023-04-24T01:40:51.575Z,2.20
2023-04-24T01:41:03.992Z,2.30
2023-04-24T01:41:14.748Z,2.40
2023-04-24T01:41:25.420Z,2.30
2023-04-24T01:41:36.132Z,2.20
2023-04-24T01:41:46.852Z,2.10
2023-04-24T01:41:58.534Z,2.00
2023-04-24T01:42:09.287Z,2.10
2023-04-24T01:42:19.970Z,2.50
2023-04-24T01:42:30.694Z,2.50
2023-04-24T01:42:42.351Z,2.60
2023-04-24T01:42:53.047Z,2.40
2023-04-24T01:43:03.861Z,2.30
2023-04-24T01:43:15.500Z,2.10
2023-04-24T01:43:26.183Z,2.00
2023-04-24T01:43:36.868Z,2.00
2023-04-24T01:43:47.583Z,2.10
2023-04-24T01:43:59.226Z,2.00
2023-04-24T01:44:09.981Z,2.00
2023-04-24T01:44:21.648Z,1.90
2023-04-24T01:44:34.358Z,2.00
2023-04-24T01:44:45.070Z,2.10
2023-04-24T01:44:55.788Z,2.00
2023-04-24T01:45:06.521Z,1.90
2023-04-24T01:45:18.654Z,2.00
2023-04-24T01:45:29.459Z,2.20
2023-04-24T01:45:41.911Z,2.20
2023-04-24T01:45:53.611Z,2.40
2023-04-24T01:46:04.483Z,2.40
2023-04-24T01:46:17.241Z,2.20
2023-04-24T01:46:27.913Z,2.10
2023-04-24T01:46:38.615Z,2.00
2023-04-24T01:46:49.327Z,2.10
2023-04-24T01:47:02.528Z,2.20
2023-04-24T01:47:14.254Z,2.20
2023-04-24T01:47:25.032Z,2.20
2023-04-24T01:47:36.750Z,2.20
2023-04-24T01:47:47.489Z,1.90
2023-04-24T01:48:00.204Z,2.00
2023-04-24T01:48:12.659Z,2.00
2023-04-24T01:48:23.365Z,2.00
2023-04-24T01:48:34.083Z,2.00
2023-04-24T01:48:44.773Z,2.10
2023-04-24T01:48:55.499Z,2.30
2023-04-24T01:49:06.194Z,2.20
2023-04-24T01:49:18.614Z,2.10
2023-04-24T01:49:29.341Z,1.80
2023-04-24T01:49:41.464Z,1.90
2023-04-24T01:49:52.421Z,2.00
2023-04-24T01:50:03.367Z,2.10
2023-04-24T01:50:15.802Z,2.20
2023-04-24T01:50:28.271Z,2.20
2023-04-24T01:50:38.964Z,2.10
2023-04-24T01:50:51.347Z,2.00
2023-04-24T01:51:02.068Z,2.00
2023-04-24T01:51:14.232Z,2.30
2023-04-24T01:51:26.675Z,2.50
2023-04-24T01:51:38.319Z,2.10
2023-04-24T01:51:49.025Z,1.90
2023-04-24T01:51:59.779Z,2.10
2023-04-24T01:52:10.438Z,2.30
2023-04-24T01:52:21.201Z,2.30
2023-04-24T01:52:33.554Z,2.10
2023-04-24T01:52:44.267Z,2.10
2023-04-24T01:52:56.492Z,2.10
2023-04-24T01:53:07.213Z,2.10
2023-04-24T01:53:17.916Z,1.80
2023-04-24T01:53:30.325Z,2.10
2023-04-24T01:53:42.029Z,2.00
2023-04-24T01:53:53.683Z,2.10
2023-04-24T01:54:05.363Z,2.00
2023-04-24T01:54:16.100Z,1.90
2023-04-24T01:54:28.769Z,2.10
2023-04-24T01:54:39.472Z,2.20
2023-04-24T01:54:51.211Z,2.10
2023-04-24T01:55:01.953Z,2.00
2023-04-24T01:55:12.654Z,2.00
2023-04-24T01:55:25.298Z,2.00
2023-04-24T01:55:37.720Z,1.90
2023-04-24T01:55:50.430Z,1.80
2023-04-24T01:56:02.928Z,2.10
2023-04-24T01:56:15.116Z,2.00
2023-04-24T01:56:25.803Z,1.70
2023-04-24T01:56:37.942Z,1.90
2023-04-24T01:56:48.648Z,1.90
2023-04-24T01:56:59.345Z,1.90
2023-04-24T01:57:10.070Z,1.90
2023-04-24T01:57:20.771Z,1.90
2023-04-24T01:57:31.482Z,1.80
2023-04-24T01:57:43.180Z,1.90
2023-04-24T01:57:53.941Z,1.80
2023-04-24T01:58:04.721Z,2.00
2023-04-24T01:58:16.425Z,1.90
2023-04-24T01:58:27.139Z,2.10
2023-04-24T01:58:37.876Z,2.00
2023-04-24T01:58:48.563Z,1.90
2023-04-24T01:59:01.014Z,1.90
2023-04-24T01:59:13.428Z,1.80
2023-04-24T01:59:25.858Z,1.80
2023-04-24T01:59:38.264Z,1.90
2023-04-24T01:59:49.966Z,1.80
2023-04-24T02:00:01.717Z,1.70
2023-04-24T02:00:12.424Z,1.90
2023-04-24T02:00:24.126Z,1.90
2023-04-24T02:00:34.903Z,1.80
2023-04-24T02:00:45.661Z,1.70
2023-04-24T02:00:56.355Z,1.80
2023-04-24T02:01:08.772Z,2.00
2023-04-24T02:01:19.554Z,1.90
2023-04-24T02:01:31.244Z,1.80
2023-04-24T02:01:42.916Z,1.80
2023-04-24T02:01:53.638Z,1.80
2023-04-24T02:02:06.344Z,1.70
2023-04-24T02:02:17.132Z,1.70
2023-04-24T02:02:27.926Z,1.80
2023-04-24T02:02:40.451Z,2.00
2023-04-24T02:02:52.865Z,2.00
2023-04-24T02:03:05.165Z,1.90
2023-04-24T02:03:16.133Z,2.30
2023-04-24T02:03:27.302Z,2.40
2023-04-24T02:03:38.239Z,1.90
2023-04-24T02:03:48.991Z,1.90
2023-04-24T02:03:59.904Z,2.00
2023-04-24T02:04:10.853Z,2.00
2023-04-24T02:04:21.648Z,1.80
2023-04-24T02:04:34.836Z,1.80
2023-04-24T02:04:47.555Z,1.80
2023-04-24T02:04:58.278Z,2.00
2023-04-24T02:05:11.002Z,2.20
2023-04-24T02:05:21.707Z,2.10
2023-04-24T02:05:32.486Z,2.10
2023-04-24T02:05:44.122Z,1.90
2023-04-24T02:05:55.786Z,1.80
2023-04-24T02:06:07.492Z,1.70
2023-04-24T02:06:19.162Z,1.70
2023-04-24T02:06:31.628Z,1.80
2023-04-24T02:06:44.693Z,1.80
2023-04-24T02:06:57.114Z,1.70
2023-04-24T02:07:07.818Z,1.70
2023-04-24T02:07:20.213Z,1.70
2023-04-24T02:07:31.906Z,1.80
2023-04-24T02:07:42.630Z,1.80
2023-04-24T02:07:55.571Z,1.70
2023-04-24T02:08:06.286Z,1.60
2023-04-24T02:08:16.986Z,1.70
2023-04-24T02:08:27.838Z,1.60
2023-04-24T02:08:38.549Z,1.70
2023-04-24T02:08:49.282Z,1.70
2023-04-24T02:09:00.921Z,1.60
2023-04-24T02:09:11.615Z,1.70
2023-04-24T02:09:23.333Z,1.70
2023-04-24T02:09:34.076Z,1.90
2023-04-24T02:09:45.772Z,1.80
2023-04-24T02:09:58.167Z,1.80
2023-04-24T02:10:08.910Z,1.80
2023-04-24T02:10:19.638Z,1.70
2023-04-24T02:10:30.315Z,1.70
2023-04-24T02:10:41.014Z,1.70
2023-04-24T02:10:51.707Z,1.70
2023-04-24T02:11:04.654Z,1.90
2023-04-24T02:11:17.045Z,1.90
2023-04-24T02:11:27.764Z,1.80
2023-04-24T02:11:38.469Z,1.70
2023-04-24T02:11:50.925Z,1.60
2023-04-24T02:12:01.598Z,1.80
2023-04-24T02:12:12.346Z,1.90
2023-04-24T02:12:23.038Z,1.80
2023-04-24T02:12:33.725Z,1.70
2023-04-24T02:12:45.938Z,1.60
2023-04-24T02:12:56.628Z,1.60
2023-04-24T02:13:08.800Z,1.60
2023-04-24T02:13:19.560Z,1.80
2023-04-24T02:13:30.247Z,1.80
2023-04-24T02:13:40.986Z,1.90
2023-04-24T02:13:52.651Z,1.80
2023-04-24T02:14:04.329Z,2.00
2023-04-24T02:14:15.979Z,2.10
2023-04-24T02:14:26.688Z,1.90
2023-04-24T02:14:38.376Z,1.60
2023-04-24T02:14:50.804Z,1.60
2023-04-24T02:15:02.512Z,1.60
2023-04-24T02:15:13.254Z,1.60
2023-04-24T02:15:24.136Z,1.70
2023-04-24T02:15:36.289Z,1.70
2023-04-24T02:15:47.009Z,1.70
2023-04-24T02:15:59.597Z,1.70
2023-04-24T02:16:11.353Z,1.70
2023-04-24T02:16:22.083Z,1.70
2023-04-24T02:16:35.276Z,1.70
2023-04-24T02:16:47.161Z,1.80
2023-04-24T02:16:59.919Z,1.80
2023-04-24T02:17:11.770Z,1.70
2023-04-24T02:17:22.501Z,1.70
2023-04-24T02:17:34.228Z,1.70
2023-04-24T02:17:44.957Z,1.60
2023-04-24T02:17:55.757Z,1.70
2023-04-24T02:18:08.932Z,1.80
2023-04-24T02:18:19.634Z,1.70
2023-04-24T02:18:32.538Z,1.60
2023-04-24T02:18:43.224Z,1.60
2023-04-24T02:18:56.396Z,1.70
2023-04-24T02:19:08.100Z,1.70
2023-04-24T02:19:20.579Z,1.80
2023-04-24T02:19:31.289Z,2.00
2023-04-24T02:19:44.051Z,1.90
2023-04-24T02:19:54.838Z,1.70
2023-04-24T02:20:08.043Z,1.60
2023-04-24T02:20:20.412Z,1.80
2023-04-24T02:20:32.822Z,1.70
2023-04-24T02:20:43.659Z,1.70
2023-04-24T02:20:56.057Z,1.70
2023-04-24T02:21:07.763Z,1.70
2023-04-24T02:21:19.465Z,1.70
2023-04-24T02:21:31.053Z,1.70
2023-04-24T02:21:41.780Z,1.70
2023-04-24T02:21:52.489Z,1.80
2023-04-24T02:22:04.151Z,1.90
2023-04-24T02:22:17.391Z,1.90
2023-04-24T02:22:28.075Z,1.80
2023-04-24T02:22:41.262Z,2.00
2023-04-24T02:22:52.029Z,1.90
2023-04-24T02:23:04.955Z,1.90
2023-04-24T02:23:16.620Z,1.90
2023-04-24T02:23:27.344Z,1.80
2023-04-24T02:23:39.774Z,1.90
2023-04-24T02:23:50.459Z,1.80
2023-04-24T02:24:01.246Z,1.90
2023-04-24T02:24:11.988Z,2.00
2023-04-24T02:24:25.152Z,1.90
2023-04-24T02:24:35.833Z,2.10
2023-04-24T02:24:46.531Z,2.40
2023-04-24T02:24:57.275Z,2.20
2023-04-24T02:25:09.624Z,2.20
2023-04-24T02:25:20.333Z,1.80
2023-04-24T02:25:33.521Z,1.80
2023-04-24T02:25:45.255Z,1.70
2023-04-24T02:25:58.498Z,1.80
2023-04-24T02:26:09.256Z,1.90
2023-04-24T02:26:21.175Z,2.00
2023-04-24T02:26:31.872Z,2.20
2023-04-24T02:26:45.084Z,2.00
2023-04-24T02:26:55.816Z,2.00
2023-04-24T02:27:07.507Z,1.80
2023-04-24T02:27:20.940Z,1.80
2023-04-24T02:27:33.417Z,2.00
2023-04-24T02:27:44.172Z,2.00
2023-04-24T02:27:55.000Z,1.90
2023-04-24T02:28:05.719Z,1.80
2023-04-24T02:28:16.416Z,1.80
2023-04-24T02:28:27.104Z,1.90
2023-04-24T02:28:37.801Z,1.90
2023-04-24T02:28:50.712Z,2.00
2023-04-24T02:29:01.417Z,1.90
2023-04-24T02:29:12.097Z,1.90
2023-04-24T02:29:24.506Z,1.90
2023-04-24T02:29:35.344Z,1.90
2023-04-24T02:29:46.979Z,1.90
2023-04-24T02:29:57.672Z,1.80
2023-04-24T02:30:08.363Z,1.80
2023-04-24T02:30:20.005Z,1.70
2023-04-24T02:30:32.474Z,1.80
2023-04-24T02:30:43.226Z,1.90
2023-04-24T02:30:54.890Z,2.00
2023-04-24T02:31:06.583Z,2.00
2023-04-24T02:31:17.299Z,2.00
2023-04-24T02:31:30.263Z,1.90
2023-04-24T02:31:42.453Z,2.00
2023-04-24T02:31:54.898Z,2.00
2023-04-24T02:32:05.605Z,1.90
2023-04-24T02:32:16.358Z,2.10